sensor_id;sensor_type;location;lat;lon;timestamp;temperature;humidity
43607;DHT22;29197;44.788;10.366;2023-12-14T10:52:56;13.60;99.90
43607;DHT22;29197;44.788;10.366;2023-12-14T10:55:47;13.70;99.90
43607;DHT22;29197;44.788;10.366;2023-12-14T10:58:46;13.70;99.90
43607;DHT22;29197;44.788;10.366;2023-12-14T11:01:35;13.80;99.90
43607;DHT22;29197;44.788;10.366;2023-12-14T11:04:27;14.00;99.90
43607;DHT22;29197;44.788;10.366;2023-12-14T11:07:15;14.20;99.90
43607;DHT22;29197;44.788;10.366;2023-12-14T11:10:06;14.40;99.90
43607;DHT22;29197;44.788;10.366;2023-12-14T11:13:00;14.40;99.90
43607;DHT22;29197;44.788;10.366;2023-12-14T11:15:50;14.50;99.90
43607;DHT22;29197;44.788;10.366;2023-12-14T11:18:40;14.30;99.90
43607;DHT22;29197;44.788;10.366;2023-12-14T11:21:29;14.00;99.90
43607;DHT22;29197;44.788;10.366;2023-12-14T11:24:19;13.80;99.90
43607;DHT22;29197;44.788;10.366;2023-12-14T11:27:09;13.70;99.90
43607;DHT22;29197;44.788;10.366;2023-12-14T11:29:58;13.70;99.90
43607;DHT22;29197;44.788;10.366;2023-12-14T11:32:47;13.70;99.90
43607;DHT22;29197;44.788;10.366;2023-12-14T11:35:36;13.60;99.90
43607;DHT22;29197;44.788;10.366;2023-12-14T11:38:25;13.50;99.90
43607;DHT22;29197;44.788;10.366;2023-12-14T11:41:14;13.40;99.90
43607;DHT22;29197;44.788;10.366;2023-12-14T11:44:04;13.30;99.90
43607;DHT22;29197;44.788;10.366;2023-12-14T11:46:54;13.20;99.90
43607;DHT22;29197;44.788;10.366;2023-12-14T11:49:43;13.00;99.90
43607;DHT22;29197;44.788;10.366;2023-12-14T11:52:32;12.90;99.90
43607;DHT22;29197;44.788;10.366;2023-12-14T11:55:21;12.90;99.90
43607;DHT22;29197;44.788;10.366;2023-12-14T11:58:12;12.80;99.90
43607;DHT22;29197;44.788;10.366;2023-12-14T12:01:13;12.50;99.90
43607;DHT22;29197;44.788;10.366;2023-12-14T12:04:10;12.60;99.90
43607;DHT22;29197;44.788;10.366;2023-12-14T12:07:02;12.60;99.90
43607;DHT22;29197;44.788;10.366;2023-12-14T12:09:52;12.60;99.90
43607;DHT22;29197;44.788;10.366;2023-12-14T12:12:40;12.60;99.90
43607;DHT22;29197;44.788;10.366;2023-12-14T12:15:33;12.50;99.90
43607;DHT22;29197;44.788;10.366;2023-12-14T12:18:24;12.40;99.90
43607;DHT22;29197;44.788;10.366;2023-12-14T12:21:13;12.40;99.90
43607;DHT22;29197;44.788;10.366;2023-12-14T12:24:02;12.30;99.90
43607;DHT22;29197;44.788;10.366;2023-12-14T12:27:01;12.30;99.90
43607;DHT22;29197;44.788;10.366;2023-12-14T12:29:51;12.20;99.90
43607;DHT22;29197;44.788;10.366;2023-12-14T12:32:41;12.20;99.90
43607;DHT22;29197;44.788;10.366;2023-12-14T12:35:32;12.20;99.90
43607;DHT22;29197;44.788;10.366;2023-12-14T12:38:21;12.20;99.90
43607;DHT22;29197;44.788;10.366;2023-12-14T12:41:10;12.20;99.90
43607;DHT22;29197;44.788;10.366;2023-12-14T12:43:59;12.30;99.90
43607;DHT22;29197;44.788;10.366;2023-12-14T12:46:53;12.30;99.90
43607;DHT22;29197;44.788;10.366;2023-12-14T12:49:57;12.40;99.90
43607;DHT22;29197;44.788;10.366;2023-12-14T12:52:47;12.40;99.90
43607;DHT22;29197;44.788;10.366;2023-12-14T12:55:37;12.50;99.90
43607;DHT22;29197;44.788;10.366;2023-12-14T12:58:26;12.50;99.90
43607;DHT22;29197;44.788;10.366;2023-12-14T13:01:15;12.50;99.90
43607;DHT22;29197;44.788;10.366;2023-12-14T13:04:04;12.50;99.90
43607;DHT22;29197;44.788;10.366;2023-12-14T13:07:05;12.50;99.90
43607;DHT22;29197;44.788;10.366;2023-12-14T13:09:55;12.40;99.90
43607;DHT22;29197;44.788;10.366;2023-12-14T13:12:44;12.40;99.90
43607;DHT22;29197;44.788;10.366;2023-12-14T13:15:33;12.30;99.90
43607;DHT22;29197;44.788;10.366;2023-12-14T13:18:22;12.30;99.90
43607;DHT22;29197;44.788;10.366;2023-12-14T13:21:11;12.30;99.90
43607;DHT22;29197;44.788;10.366;2023-12-14T13:24:00;12.30;99.90
43607;DHT22;29197;44.788;10.366;2023-12-14T13:26:50;12.30;99.90
43607;DHT22;29197;44.788;10.366;2023-12-14T13:29:39;12.30;99.90
43607;DHT22;29197;44.788;10.366;2023-12-14T13:32:28;12.30;99.90
43607;DHT22;29197;44.788;10.366;2023-12-14T13:35:16;12.30;99.90
43607;DHT22;29197;44.788;10.366;2023-12-14T13:38:05;12.30;99.90
43607;DHT22;29197;44.788;10.366;2023-12-14T13:40:54;12.30;99.90
43607;DHT22;29197;44.788;10.366;2023-12-14T13:43:44;12.40;99.90
43607;DHT22;29197;44.788;10.366;2023-12-14T13:46:33;12.40;99.90
43607;DHT22;29197;44.788;10.366;2023-12-14T13:49:22;12.40;99.90
43607;DHT22;29197;44.788;10.366;2023-12-14T13:52:10;12.40;99.90
43607;DHT22;29197;44.788;10.366;2023-12-14T13:54:59;12.30;99.90
43607;DHT22;29197;44.788;10.366;2023-12-14T13:57:48;12.30;99.90
43607;DHT22;29197;44.788;10.366;2023-12-14T14:00:38;12.20;99.90
43607;DHT22;29197;44.788;10.366;2023-12-14T14:03:27;12.30;99.90
43607;DHT22;29197;44.788;10.366;2023-12-14T14:06:16;12.30;99.90
43607;DHT22;29197;44.788;10.366;2023-12-14T14:09:05;12.20;99.90
43607;DHT22;29197;44.788;10.366;2023-12-14T14:11:54;12.10;99.90
43607;DHT22;29197;44.788;10.366;2023-12-14T14:14:43;12.10;99.90
43607;DHT22;29197;44.788;10.366;2023-12-14T14:17:33;12.10;99.90
43607;DHT22;29197;44.788;10.366;2023-12-14T14:20:22;12.00;99.90
43607;DHT22;29197;44.788;10.366;2023-12-14T14:23:12;12.00;99.90
43607;DHT22;29197;44.788;10.366;2023-12-14T14:26:01;11.60;99.90
43607;DHT22;29197;44.788;10.366;2023-12-14T14:28:49;12.00;99.90
43607;DHT22;29197;44.788;10.366;2023-12-14T14:31:38;12.00;99.90
43607;DHT22;29197;44.788;10.366;2023-12-14T14:34:29;12.00;99.90
43607;DHT22;29197;44.788;10.366;2023-12-14T14:37:17;11.70;99.90
43607;DHT22;29197;44.788;10.366;2023-12-14T14:40:07;12.00;99.90
43607;DHT22;29197;44.788;10.366;2023-12-14T14:42:56;12.00;99.90
43607;DHT22;29197;44.788;10.366;2023-12-14T14:45:45;11.90;99.90
43607;DHT22;29197;44.788;10.366;2023-12-14T14:48:34;11.90;99.90
43607;DHT22;29197;44.788;10.366;2023-12-14T14:51:26;11.90;99.90
43607;DHT22;29197;44.788;10.366;2023-12-14T14:54:17;11.90;99.90
43607;DHT22;29197;44.788;10.366;2023-12-14T14:57:06;11.90;99.90
43607;DHT22;29197;44.788;10.366;2023-12-14T14:59:56;11.90;99.90
43607;DHT22;29197;44.788;10.366;2023-12-14T15:02:45;11.90;99.90
43607;DHT22;29197;44.788;10.366;2023-12-14T15:05:34;11.80;99.90
43607;DHT22;29197;44.788;10.366;2023-12-14T15:08:24;11.80;99.90
43607;DHT22;29197;44.788;10.366;2023-12-14T15:11:13;11.70;99.90
43607;DHT22;29197;44.788;10.366;2023-12-14T15:14:02;11.70;99.90
43607;DHT22;29197;44.788;10.366;2023-12-14T15:16:51;11.70;99.90
43607;DHT22;29197;44.788;10.366;2023-12-14T15:19:39;11.60;99.90
43607;DHT22;29197;44.788;10.366;2023-12-14T15:22:28;11.70;99.90
43607;DHT22;29197;44.788;10.366;2023-12-14T15:25:18;11.60;99.90
43607;DHT22;29197;44.788;10.366;2023-12-14T15:28:07;11.60;99.90
43607;DHT22;29197;44.788;10.366;2023-12-14T15:30:56;11.50;99.90
43607;DHT22;29197;44.788;10.366;2023-12-14T15:33:45;11.50;99.90
43607;DHT22;29197;44.788;10.366;2023-12-14T15:36:34;11.50;99.90
43607;DHT22;29197;44.788;10.366;2023-12-14T15:39:24;11.50;99.90
43607;DHT22;29197;44.788;10.366;2023-12-14T15:42:14;11.40;99.90
43607;DHT22;29197;44.788;10.366;2023-12-14T15:45:03;11.40;99.90
43607;DHT22;29197;44.788;10.366;2023-12-14T15:47:56;11.30;99.90
43607;DHT22;29197;44.788;10.366;2023-12-14T15:50:45;11.20;99.90
43607;DHT22;29197;44.788;10.366;2023-12-14T15:53:34;11.20;99.90
43607;DHT22;29197;44.788;10.366;2023-12-14T15:56:23;11.20;99.90
43607;DHT22;29197;44.788;10.366;2023-12-14T15:59:15;11.20;99.90
43607;DHT22;29197;44.788;10.366;2023-12-14T16:02:04;11.10;99.90
43607;DHT22;29197;44.788;10.366;2023-12-14T16:04:52;11.10;99.90
43607;DHT22;29197;44.788;10.366;2023-12-14T16:07:41;11.10;99.90
43607;DHT22;29197;44.788;10.366;2023-12-14T16:10:32;11.10;99.90
43607;DHT22;29197;44.788;10.366;2023-12-14T16:13:21;11.00;99.90
43607;DHT22;29197;44.788;10.366;2023-12-14T16:16:11;11.00;99.90
43607;DHT22;29197;44.788;10.366;2023-12-14T16:19:00;10.90;99.90
43607;DHT22;29197;44.788;10.366;2023-12-14T16:21:49;10.90;99.90
43607;DHT22;29197;44.788;10.366;2023-12-14T16:24:38;10.90;99.90
43607;DHT22;29197;44.788;10.366;2023-12-14T16:27:26;10.90;99.90
43607;DHT22;29197;44.788;10.366;2023-12-14T16:30:15;10.80;99.90
43607;DHT22;29197;44.788;10.366;2023-12-14T16:33:05;10.80;99.90
43607;DHT22;29197;44.788;10.366;2023-12-14T16:35:54;10.80;99.90
43607;DHT22;29197;44.788;10.366;2023-12-14T16:38:43;10.80;99.90
43607;DHT22;29197;44.788;10.366;2023-12-14T16:41:33;10.70;99.90
43607;DHT22;29197;44.788;10.366;2023-12-14T16:44:22;10.70;99.90
43607;DHT22;29197;44.788;10.366;2023-12-14T16:47:11;10.60;99.90
43607;DHT22;29197;44.788;10.366;2023-12-14T16:50:02;10.60;99.90
43607;DHT22;29197;44.788;10.366;2023-12-14T16:52:51;10.60;99.90
43607;DHT22;29197;44.788;10.366;2023-12-14T16:55:40;10.60;99.90
43607;DHT22;29197;44.788;10.366;2023-12-14T16:58:28;10.70;99.90
43607;DHT22;29197;44.788;10.366;2023-12-14T17:01:22;10.70;99.90
43607;DHT22;29197;44.788;10.366;2023-12-14T17:04:11;10.60;99.90
43607;DHT22;29197;44.788;10.366;2023-12-14T17:07:01;10.60;99.90
43607;DHT22;29197;44.788;10.366;2023-12-14T17:09:50;10.40;99.90
43607;DHT22;29197;44.788;10.366;2023-12-14T17:12:39;10.50;99.90
43607;DHT22;29197;44.788;10.366;2023-12-14T17:15:28;10.40;99.90
43607;DHT22;29197;44.788;10.366;2023-12-14T17:18:17;10.40;99.90
43607;DHT22;29197;44.788;10.366;2023-12-14T17:21:15;10.40;99.90
43607;DHT22;29197;44.788;10.366;2023-12-14T17:24:06;10.40;99.90
43607;DHT22;29197;44.788;10.366;2023-12-14T17:26:57;10.40;99.90
43607;DHT22;29197;44.788;10.366;2023-12-14T17:29:46;10.30;99.90
43607;DHT22;29197;44.788;10.366;2023-12-14T17:32:35;10.30;99.90
43607;DHT22;29197;44.788;10.366;2023-12-14T17:35:24;10.30;99.90
43607;DHT22;29197;44.788;10.366;2023-12-14T17:38:14;10.20;99.90
43607;DHT22;29197;44.788;10.366;2023-12-14T17:41:07;10.20;99.90
43607;DHT22;29197;44.788;10.366;2023-12-14T17:43:57;10.30;99.90
43607;DHT22;29197;44.788;10.366;2023-12-14T17:46:46;10.20;99.90
43607;DHT22;29197;44.788;10.366;2023-12-14T17:49:35;10.20;99.90
43607;DHT22;29197;44.788;10.366;2023-12-14T17:52:23;10.10;99.90
43607;DHT22;29197;44.788;10.366;2023-12-14T17:55:13;10.10;99.90
43607;DHT22;29197;44.788;10.366;2023-12-14T17:58:03;10.00;99.90
43607;DHT22;29197;44.788;10.366;2023-12-14T18:00:52;10.10;99.90
43607;DHT22;29197;44.788;10.366;2023-12-14T18:03:41;10.00;99.90
43607;DHT22;29197;44.788;10.366;2023-12-14T18:06:30;9.90;99.90
43607;DHT22;29197;44.788;10.366;2023-12-14T18:09:18;9.90;99.90
43607;DHT22;29197;44.788;10.366;2023-12-14T18:12:07;9.80;99.90
43607;DHT22;29197;44.788;10.366;2023-12-14T18:15:00;9.80;99.90
43607;DHT22;29197;44.788;10.366;2023-12-14T18:17:51;9.90;99.90
43607;DHT22;29197;44.788;10.366;2023-12-14T18:20:40;9.90;99.90
43607;DHT22;29197;44.788;10.366;2023-12-14T18:23:30;9.90;99.90
43607;DHT22;29197;44.788;10.366;2023-12-14T18:26:19;10.00;99.90
43607;DHT22;29197;44.788;10.366;2023-12-14T18:29:09;10.00;99.90
43607;DHT22;29197;44.788;10.366;2023-12-14T18:32:00;9.90;99.90
43607;DHT22;29197;44.788;10.366;2023-12-14T18:34:49;9.80;99.90
43607;DHT22;29197;44.788;10.366;2023-12-14T18:37:38;9.70;99.90
43607;DHT22;29197;44.788;10.366;2023-12-14T18:40:27;9.70;99.90
43607;DHT22;29197;44.788;10.366;2023-12-14T18:43:16;9.60;99.90
43607;DHT22;29197;44.788;10.366;2023-12-14T18:46:04;9.40;99.90
43607;DHT22;29197;44.788;10.366;2023-12-14T18:48:54;9.30;99.90
43607;DHT22;29197;44.788;10.366;2023-12-14T18:51:43;9.40;99.90
43607;DHT22;29197;44.788;10.366;2023-12-14T18:54:32;9.50;99.90
43607;DHT22;29197;44.788;10.366;2023-12-14T18:57:21;9.30;99.90
43607;DHT22;29197;44.788;10.366;2023-12-14T19:00:10;9.40;99.90
43607;DHT22;29197;44.788;10.366;2023-12-14T19:02:59;9.50;99.90
43607;DHT22;29197;44.788;10.366;2023-12-14T19:05:53;9.40;99.90
43607;DHT22;29197;44.788;10.366;2023-12-14T19:08:42;9.40;99.90
43607;DHT22;29197;44.788;10.366;2023-12-14T19:11:31;9.40;99.90
43607;DHT22;29197;44.788;10.366;2023-12-14T19:14:20;9.40;99.90
43607;DHT22;29197;44.788;10.366;2023-12-14T19:17:08;9.30;99.90
43607;DHT22;29197;44.788;10.366;2023-12-14T19:19:59;9.00;99.90
43607;DHT22;29197;44.788;10.366;2023-12-14T19:22:50;8.70;99.90
43607;DHT22;29197;44.788;10.366;2023-12-14T19:25:39;8.40;99.90
43607;DHT22;29197;44.788;10.366;2023-12-14T19:28:28;8.40;99.90
43607;DHT22;29197;44.788;10.366;2023-12-14T19:31:16;8.40;99.90
43607;DHT22;29197;44.788;10.366;2023-12-14T19:34:05;8.60;99.90
43607;DHT22;29197;44.788;10.366;2023-12-14T19:36:54;8.70;99.90
43607;DHT22;29197;44.788;10.366;2023-12-14T19:39:45;8.80;99.90
43607;DHT22;29197;44.788;10.366;2023-12-14T19:42:35;8.80;99.90
43607;DHT22;29197;44.788;10.366;2023-12-14T19:45:24;8.90;99.90
43607;DHT22;29197;44.788;10.366;2023-12-14T19:48:13;8.90;99.90
43607;DHT22;29197;44.788;10.366;2023-12-14T19:51:03;9.00;99.90
43607;DHT22;29197;44.788;10.366;2023-12-14T19:53:55;9.10;99.90
43607;DHT22;29197;44.788;10.366;2023-12-14T19:56:52;9.10;99.90
43607;DHT22;29197;44.788;10.366;2023-12-14T19:59:46;9.00;99.90
43607;DHT22;29197;44.788;10.366;2023-12-14T20:02:37;9.00;99.90
43607;DHT22;29197;44.788;10.366;2023-12-14T20:05:32;9.10;99.90
43607;DHT22;29197;44.788;10.366;2023-12-14T20:08:26;9.10;99.90
43607;DHT22;29197;44.788;10.366;2023-12-14T20:11:17;9.20;99.90
43607;DHT22;29197;44.788;10.366;2023-12-14T20:14:09;9.20;99.90
43607;DHT22;29197;44.788;10.366;2023-12-14T20:17:03;9.20;99.90
43607;DHT22;29197;44.788;10.366;2023-12-14T20:19:58;9.10;99.90
43607;DHT22;29197;44.788;10.366;2023-12-14T20:22:51;9.10;99.90
43607;DHT22;29197;44.788;10.366;2023-12-14T20:25:44;9.00;99.90
43607;DHT22;29197;44.788;10.366;2023-12-14T20:28:38;8.70;99.90
43607;DHT22;29197;44.788;10.366;2023-12-14T20:31:35;8.60;99.90
43607;DHT22;29197;44.788;10.366;2023-12-14T20:34:27;8.40;99.90
43607;DHT22;29197;44.788;10.366;2023-12-14T20:37:18;8.40;99.90
43607;DHT22;29197;44.788;10.366;2023-12-14T20:40:16;8.00;99.90
43607;DHT22;29197;44.788;10.366;2023-12-14T20:43:10;7.90;99.90
43607;DHT22;29197;44.788;10.366;2023-12-14T20:46:04;8.00;99.90
43607;DHT22;29197;44.788;10.366;2023-12-14T20:48:56;8.20;99.90
43607;DHT22;29197;44.788;10.366;2023-12-14T20:51:45;8.30;99.90
43607;DHT22;29197;44.788;10.366;2023-12-14T20:54:35;8.30;99.90
43607;DHT22;29197;44.788;10.366;2023-12-14T20:57:24;8.30;99.90
43607;DHT22;29197;44.788;10.366;2023-12-14T21:00:13;8.40;99.90
43607;DHT22;29197;44.788;10.366;2023-12-14T21:03:02;8.40;99.90
43607;DHT22;29197;44.788;10.366;2023-12-14T21:05:53;8.50;99.90
43607;DHT22;29197;44.788;10.366;2023-12-14T21:08:42;8.60;99.90
43607;DHT22;29197;44.788;10.366;2023-12-14T21:11:31;8.60;99.90
43607;DHT22;29197;44.788;10.366;2023-12-14T21:14:20;8.70;99.90
43607;DHT22;29197;44.788;10.366;2023-12-14T21:17:09;8.70;99.90
43607;DHT22;29197;44.788;10.366;2023-12-14T21:19:58;8.80;99.90
43607;DHT22;29197;44.788;10.366;2023-12-14T21:22:48;8.70;99.90
43607;DHT22;29197;44.788;10.366;2023-12-14T21:25:37;8.70;99.90
43607;DHT22;29197;44.788;10.366;2023-12-14T21:28:28;8.70;99.90
43607;DHT22;29197;44.788;10.366;2023-12-14T21:31:15;8.40;99.90
43607;DHT22;29197;44.788;10.366;2023-12-14T21:34:04;8.00;99.90
43607;DHT22;29197;44.788;10.366;2023-12-14T21:36:55;7.90;99.90
43607;DHT22;29197;44.788;10.366;2023-12-14T21:39:45;8.00;99.90
43607;DHT22;29197;44.788;10.366;2023-12-14T21:42:34;8.10;99.90
43607;DHT22;29197;44.788;10.366;2023-12-14T21:45:23;8.10;99.90
43607;DHT22;29197;44.788;10.366;2023-12-14T21:48:12;7.70;99.90
43607;DHT22;29197;44.788;10.366;2023-12-14T21:51:00;7.60;99.90
43607;DHT22;29197;44.788;10.366;2023-12-14T21:53:49;7.70;99.90
43607;DHT22;29197;44.788;10.366;2023-12-14T21:56:39;7.80;99.90
43607;DHT22;29197;44.788;10.366;2023-12-14T21:59:28;7.70;99.90
43607;DHT22;29197;44.788;10.366;2023-12-14T22:02:16;7.60;99.90
43607;DHT22;29197;44.788;10.366;2023-12-14T22:05:05;7.60;99.90
43607;DHT22;29197;44.788;10.366;2023-12-14T22:07:54;7.70;99.90
43607;DHT22;29197;44.788;10.366;2023-12-14T22:10:43;7.70;99.90
43607;DHT22;29197;44.788;10.366;2023-12-14T22:13:33;7.80;99.90
43607;DHT22;29197;44.788;10.366;2023-12-14T22:16:22;7.90;99.90
43607;DHT22;29197;44.788;10.366;2023-12-14T22:19:11;7.80;99.90
43607;DHT22;29197;44.788;10.366;2023-12-14T22:22:00;7.80;99.90
43607;DHT22;29197;44.788;10.366;2023-12-14T22:24:49;7.80;99.90
43607;DHT22;29197;44.788;10.366;2023-12-14T22:27:37;7.70;99.90
43607;DHT22;29197;44.788;10.366;2023-12-14T22:30:27;7.80;99.90
43607;DHT22;29197;44.788;10.366;2023-12-14T22:33:16;7.70;99.90
43607;DHT22;29197;44.788;10.366;2023-12-14T22:36:05;7.70;99.90
43607;DHT22;29197;44.788;10.366;2023-12-14T22:38:54;7.70;99.90
43607;DHT22;29197;44.788;10.366;2023-12-14T22:41:42;7.80;99.90
43607;DHT22;29197;44.788;10.366;2023-12-14T22:44:31;7.40;99.90
43607;DHT22;29197;44.788;10.366;2023-12-14T22:47:21;7.30;99.90
43607;DHT22;29197;44.788;10.366;2023-12-14T22:50:11;7.30;99.90
43607;DHT22;29197;44.788;10.366;2023-12-14T22:53:00;7.40;99.90
43607;DHT22;29197;44.788;10.366;2023-12-14T22:55:53;7.20;99.90
43607;DHT22;29197;44.788;10.366;2023-12-14T22:58:42;7.30;99.90
43607;DHT22;29197;44.788;10.366;2023-12-14T23:01:32;7.20;99.90
43607;DHT22;29197;44.788;10.366;2023-12-14T23:04:22;7.20;99.90
43607;DHT22;29197;44.788;10.366;2023-12-14T23:07:11;7.00;99.90
43607;DHT22;29197;44.788;10.366;2023-12-14T23:09:59;6.90;99.90
43607;DHT22;29197;44.788;10.366;2023-12-14T23:12:48;6.90;99.90
43607;DHT22;29197;44.788;10.366;2023-12-14T23:15:37;7.00;99.90
43607;DHT22;29197;44.788;10.366;2023-12-14T23:18:26;7.00;99.90
43607;DHT22;29197;44.788;10.366;2023-12-14T23:21:16;6.90;99.90
43607;DHT22;29197;44.788;10.366;2023-12-14T23:24:06;6.90;99.90
43607;DHT22;29197;44.788;10.366;2023-12-14T23:26:55;7.10;99.90
43607;DHT22;29197;44.788;10.366;2023-12-14T23:29:43;7.10;99.90
43607;DHT22;29197;44.788;10.366;2023-12-14T23:32:32;6.90;99.90
43607;DHT22;29197;44.788;10.366;2023-12-14T23:35:21;6.70;99.90
43607;DHT22;29197;44.788;10.366;2023-12-14T23:38:11;6.80;99.90
43607;DHT22;29197;44.788;10.366;2023-12-14T23:41:00;7.00;99.90
43607;DHT22;29197;44.788;10.366;2023-12-14T23:43:49;7.20;99.90
43607;DHT22;29197;44.788;10.366;2023-12-14T23:46:42;7.40;99.90
43607;DHT22;29197;44.788;10.366;2023-12-14T23:49:30;7.50;99.90
43607;DHT22;29197;44.788;10.366;2023-12-14T23:52:19;7.60;99.90
43607;DHT22;29197;44.788;10.366;2023-12-14T23:55:09;7.60;99.90
43607;DHT22;29197;44.788;10.366;2023-12-14T23:57:58;7.30;99.90
